Highmount, Pennsylvania
Current Conditions -  °F | °C
As of 4:56 PM on Friday 31 Oct 2014 (Local Time) from KMDT Reporting Station
Broken Clouds Broken Clouds  
Wind Chill: 52°   Ceiling: 5500
Heat Index: 52°   Visibility: 10mi
Dew Point: 32°   Wind: 3mph
Humidity: 47%   Direction: 240°WSW
Pressure: 29.87"   Gusts: NA
Location:  40.0152°N, 76.5974°W
Report Text: KMDT 312056Z 24003KT 10SM BKN055 BKN250 11/00 A2987 RMK AO2 SLP116 T01110000 56017
Loading
Personal Weather Stations






























Interactive Weather Map
Tropical Storm Tracking
New forecast layout! Learn more

10-Day Weather Forecast

Advertisements
Track Severe Weather on mobile